Time;durP1;ratioP1;P1;durP2;ratioP2;P2;SDS_P1;SDS_P2;PMS_P1;PMS_P2;Temp;Humidity;BMP_temperature;BMP_pressure;BME280_temperature;BME280_humidity;BME280_pressure;Samples;Min_cycle;Max_cycle;Signal;HPM_P1;HPM_P2
2022/03/22 00:00:37;;;;;;;15.43;9.10;;;4.40;65.20;;;;;;5076127;28;20158;-64
2022/03/22 00:03:04;;;;;;;13.50;8.50;;;4.30;65.50;;;;;;5075860;28;20246;-64
2022/03/22 00:05:30;;;;;;;11.67;7.90;;;4.30;65.50;;;;;;5058079;28;20213;-63
2022/03/22 00:07:56;;;;;;;19.73;9.87;;;4.30;67.40;;;;;;5076069;28;20167;-64
2022/03/22 00:10:22;;;;;;;16.70;9.20;;;4.30;69.40;;;;;;5076388;28;20177;-64
2022/03/22 00:12:49;;;;;;;16.60;9.20;;;4.30;70.30;;;;;;5075978;28;20179;-64
2022/03/22 00:15:16;;;;;;;17.80;8.57;;;4.20;71.60;;;;;;5077784;28;20590;-64
2022/03/22 00:17:42;;;;;;;18.00;8.53;;;4.20;73.00;;;;;;5063709;28;20237;-64
2022/03/22 00:20:10;;;;;;;13.97;8.00;;;4.20;73.90;;;;;;5077363;28;20579;-64
2022/03/22 00:22:36;;;;;;;12.03;7.63;;;4.30;74.60;;;;;;5075275;28;20193;-65
2022/03/22 00:25:03;;;;;;;14.27;7.73;;;4.30;74.50;;;;;;5057605;28;20302;-64
2022/03/22 00:27:50;;;;;;;12.37;7.47;;;4.30;74.90;;;;;;5075139;28;20221;-64
2022/03/22 00:30:15;;;;;;;11.40;6.63;;;4.30;74.60;;;;;;5075373;28;20189;-65
2022/03/22 00:32:40;;;;;;;16.40;7.63;;;4.40;73.10;;;;;;5078555;28;20170;-64
2022/03/22 00:35:07;;;;;;;12.60;6.73;;;4.60;69.90;;;;;;5063144;28;20178;-64
2022/03/22 00:37:37;;;;;;;11.97;7.63;;;4.70;65.90;;;;;;5079813;28;20187;-64
2022/03/22 00:40:07;;;;;;;10.87;6.70;;;4.60;65.80;;;;;;5075601;28;20182;-64
2022/03/22 00:42:32;;;;;;;13.30;6.60;;;4.40;67.00;;;;;;5069496;28;20261;-65
2022/03/22 00:44:58;;;;;;;11.73;7.07;;;4.30;68.80;;;;;;5077257;28;20233;-63
2022/03/22 00:47:24;;;;;;;14.90;7.30;;;4.30;69.00;;;;;;5078379;28;20222;-64
2022/03/22 00:49:49;;;;;;;12.53;7.10;;;4.30;70.10;;;;;;5079432;28;20545;-64
2022/03/22 00:52:15;;;;;;;9.50;7.20;;;4.20;70.60;;;;;;5079840;28;20167;-64
2022/03/22 00:54:40;;;;;;;14.50;7.00;;;4.30;69.90;;;;;;5077259;28;20175;-64
2022/03/22 00:57:06;;;;;;;10.40;6.47;;;4.40;67.60;;;;;;5074589;28;20166;-64
2022/03/22 01:02:16;;;;;;;13.13;7.17;;;4.30;67.20;;;;;;5078863;28;20163;-64
2022/03/22 01:04:43;;;;;;;11.17;6.37;;;4.20;69.20;;;;;;5079940;28;20593;-66
2022/03/22 01:07:08;;;;;;;9.90;6.33;;;4.10;71.10;;;;;;5080245;28;20183;-64
2022/03/22 01:09:34;;;;;;;10.83;6.93;;;4.00;72.10;;;;;;5080642;28;20182;-64
2022/03/22 01:11:59;;;;;;;10.90;6.57;;;3.90;73.60;;;;;;5074593;28;20279;-64
2022/03/22 01:14:28;;;;;;;10.93;7.33;;;3.80;75.40;;;;;;5074177;28;20166;-64
2022/03/22 01:16:55;;;;;;;10.57;6.30;;;3.70;77.00;;;;;;5075570;28;20510;-64
2022/03/22 01:19:21;;;;;;;11.37;6.40;;;3.70;79.00;;;;;;5075514;28;20161;-63
2022/03/22 01:21:48;;;;;;;14.13;7.13;;;3.70;81.50;;;;;;5075784;28;20170;-65
2022/03/22 01:24:13;;;;;;;10.90;6.73;;;3.70;81.40;;;;;;5075476;28;20194;-64
2022/03/22 01:26:40;;;;;;;9.37;6.13;;;3.80;80.70;;;;;;5074008;28;20170;-63
2022/03/22 01:29:06;;;;;;;14.17;6.93;;;3.80;79.20;;;;;;5074420;28;20565;-64
2022/03/22 01:31:31;;;;;;;14.03;6.63;;;4.10;72.90;;;;;;5074203;28;20160;-65
2022/03/22 01:33:57;;;;;;;14.10;7.23;;;4.40;67.20;;;;;;5074088;28;20169;-65
2022/03/22 01:36:23;;;;;;;10.50;6.50;;;4.60;63.80;;;;;;5055632;28;20183;-64
2022/03/22 01:38:48;;;;;;;10.33;6.27;;;4.80;60.70;;;;;;5074301;28;20178;-63
2022/03/22 01:41:14;;;;;;;12.10;6.63;;;5.00;59.60;;;;;;5073629;28;20176;-63
2022/03/22 01:43:39;;;;;;;13.17;6.47;;;5.00;59.40;;;;;;5073453;28;20224;-63
2022/03/22 01:46:05;;;;;;;10.67;6.67;;;5.10;57.40;;;;;;5073411;28;20281;-64
2022/03/22 01:48:31;;;;;;;11.93;6.30;;;5.10;55.90;;;;;;5089894;28;20172;-63
2022/03/22 01:50:57;;;;;;;10.13;6.27;;;5.20;55.30;;;;;;5074305;28;20171;-64
2022/03/22 01:53:23;;;;;;;11.23;6.50;;;5.30;54.50;;;;;;5073808;28;20161;-64
2022/03/22 01:55:48;;;;;;;11.83;6.13;;;5.30;53.90;;;;;;5074215;28;20174;-64
2022/03/22 01:58:14;;;;;;;13.50;6.47;;;5.40;53.30;;;;;;5074217;28;20574;-64
2022/03/22 02:00:40;;;;;;;11.33;6.53;;;5.50;52.90;;;;;;5073952;28;20166;-64
2022/03/22 02:05:52;;;;;;;11.37;7.07;;;5.50;51.70;;;;;;5073543;28;20194;-64
2022/03/22 02:08:19;;;;;;;12.93;6.53;;;5.60;51.50;;;;;;5073925;28;20564;-63
2022/03/22 02:10:46;;;;;;;12.07;6.57;;;5.70;51.00;;;;;;5073180;28;20670;-64
2022/03/22 02:13:12;;;;;;;10.30;6.20;;;5.80;50.50;;;;;;5073403;28;20166;-65
2022/03/22 02:15:38;;;;;;;10.00;5.50;;;5.80;50.10;;;;;;5073864;28;20170;-64
2022/03/22 02:18:04;;;;;;;12.53;7.10;;;5.80;49.70;;;;;;5073556;28;20165;-63
2022/03/22 02:20:31;;;;;;;12.13;6.33;;;5.90;49.40;;;;;;5073892;28;20160;-63
2022/03/22 02:23:05;;;;;;;10.70;5.70;;;5.90;48.90;;;;;;5073377;28;20243;-64
2022/03/22 02:25:35;;;;;;;12.50;6.63;;;6.00;48.70;;;;;;5070232;28;20213;-64
2022/03/22 02:28:01;;;;;;;10.17;6.37;;;5.90;48.40;;;;;;5073391;28;20162;-63
2022/03/22 02:30:26;;;;;;;14.60;7.40;;;5.90;48.30;;;;;;5075102;28;20613;-63
2022/03/22 02:32:56;;;;;;;12.57;6.57;;;5.90;48.10;;;;;;5074531;28;20194;-66
2022/03/22 02:35:23;;;;;;;11.03;6.07;;;5.90;48.30;;;;;;5073867;28;20160;-63
2022/03/22 02:37:49;;;;;;;8.77;6.50;;;5.90;48.10;;;;;;5073741;28;20218;-63
2022/03/22 02:40:15;;;;;;;11.47;5.57;;;5.90;48.00;;;;;;5073629;28;20213;-64
2022/03/22 02:42:44;;;;;;;12.50;6.97;;;5.90;48.00;;;;;;5089223;28;20240;-64
2022/03/22 02:45:11;;;;;;;12.10;6.83;;;5.90;47.90;;;;;;5073412;28;20206;-63
2022/03/22 02:47:38;;;;;;;12.30;6.70;;;5.90;48.00;;;;;;5073119;28;20167;-64
2022/03/22 02:50:05;;;;;;;11.30;6.17;;;5.80;48.00;;;;;;5072969;28;20249;-65
2022/03/22 02:52:30;;;;;;;11.30;6.97;;;5.80;48.00;;;;;;5073308;28;20321;-64
2022/03/22 02:54:57;;;;;;;13.03;6.80;;;5.70;48.10;;;;;;5073249;28;20194;-64
2022/03/22 02:57:23;;;;;;;10.47;6.80;;;5.70;48.30;;;;;;5073892;28;20169;-64
2022/03/22 02:59:48;;;;;;;9.70;6.63;;;5.70;48.60;;;;;;5073328;28;20160;-63
2022/03/22 03:02:14;;;;;;;11.83;7.30;;;5.60;48.50;;;;;;5073923;28;20232;-63
2022/03/22 03:04:40;;;;;;;10.37;5.43;;;5.50;49.30;;;;;;5089752;28;20211;-64
2022/03/22 03:07:05;;;;;;;13.70;6.70;;;5.40;48.80;;;;;;5074052;28;20168;-64
2022/03/22 03:09:31;;;;;;;11.93;6.83;;;5.50;49.00;;;;;;5073799;28;20159;-64
2022/03/22 03:11:56;;;;;;;11.03;6.90;;;5.50;48.90;;;;;;5089388;28;20183;-65
2022/03/22 03:14:40;;;;;;;15.07;5.87;;;5.50;49.00;;;;;;5073617;28;20174;-64
2022/03/22 03:17:08;;;;;;;15.20;7.20;;;5.50;49.00;;;;;;5089632;28;20219;-65
2022/03/22 03:19:34;;;;;;;13.43;7.50;;;5.40;49.10;;;;;;5079249;28;20216;-64
2022/03/22 03:22:02;;;;;;;9.53;5.30;;;5.40;49.20;;;;;;5080492;28;20226;-65
2022/03/22 03:24:28;;;;;;;11.30;6.73;;;5.40;49.40;;;;;;5082695;28;20191;-64
2022/03/22 03:26:53;;;;;;;13.83;7.10;;;5.40;49.40;;;;;;5081917;28;20594;-63
2022/03/22 03:29:19;;;;;;;10.63;5.63;;;5.40;49.40;;;;;;5078418;28;20154;-64
2022/03/22 03:31:44;;;;;;;11.10;7.60;;;5.40;49.50;;;;;;5081191;28;20602;-64
2022/03/22 03:34:10;;;;;;;14.73;7.17;;;5.30;49.70;;;;;;5083770;28;20168;-69
2022/03/22 03:36:36;;;;;;;11.50;7.03;;;5.20;49.60;;;;;;5106898;28;20185;-63
2022/03/22 03:39:03;;;;;;;13.23;7.47;;;5.20;49.90;;;;;;5091429;28;20530;-65
2022/03/22 03:47:05;;;;;;;11.00;7.67;;;5.10;50.30;;;;;;5075715;28;20172;-64
2022/03/22 03:49:37;;;;;;;11.40;6.57;;;5.10;50.40;;;;;;5076341;28;20168;-63
2022/03/22 03:52:05;;;;;;;11.20;7.50;;;5.00;50.70;;;;;;5075845;28;20244;-63
2022/03/22 03:54:31;;;;;;;13.80;8.40;;;5.00;51.00;;;;;;5077044;28;20615;-64
2022/03/22 03:56:57;;;;;;;16.17;7.27;;;4.90;51.30;;;;;;5075251;28;20166;-64
2022/03/22 03:59:22;;;;;;;9.10;6.60;;;5.00;51.70;;;;;;5075327;28;20181;-64
2022/03/22 04:01:48;;;;;;;12.30;7.60;;;4.80;51.80;;;;;;5078569;28;20167;-64
2022/03/22 04:04:14;;;;;;;13.17;7.63;;;4.80;51.90;;;;;;5080064;28;20280;-64
2022/03/22 04:06:39;;;;;;;13.50;7.37;;;4.80;52.10;;;;;;5081604;28;20199;-64
2022/03/22 04:09:05;;;;;;;14.10;8.27;;;4.70;52.40;;;;;;5082780;28;20598;-64
2022/03/22 04:11:30;;;;;;;10.87;7.20;;;4.70;52.60;;;;;;5079554;28;20168;-64
2022/03/22 04:13:56;;;;;;;13.30;8.27;;;4.70;52.80;;;;;;5075138;28;20163;-63
2022/03/22 04:16:21;;;;;;;16.17;7.50;;;4.60;52.90;;;;;;5075280;28;20227;-64
2022/03/22 04:18:48;;;;;;;12.33;7.90;;;4.60;53.00;;;;;;5075156;28;20172;-65
2022/03/22 04:21:14;;;;;;;14.63;7.90;;;4.60;53.00;;;;;;5071229;28;20196;-63
2022/03/22 04:23:40;;;;;;;12.67;7.97;;;4.50;53.00;;;;;;5075437;28;20161;-63
2022/03/22 04:26:05;;;;;;;14.17;8.37;;;4.70;53.60;;;;;;5057130;28;20215;-63
2022/03/22 04:34:01;;;;;;;13.07;7.23;;;4.40;54.20;;;;;;5073820;28;20166;-64
2022/03/22 04:36:28;;;;;;;13.50;8.13;;;4.30;54.50;;;;;;5075104;28;20258;-64
2022/03/22 04:38:54;;;;;;;13.73;7.93;;;4.30;54.70;;;;;;5075462;28;20201;-64
2022/03/22 04:41:20;;;;;;;14.53;8.17;;;4.30;55.20;;;;;;5074568;28;20168;-63
2022/03/22 04:43:46;;;;;;;15.47;7.77;;;4.20;55.10;;;;;;5074834;28;20224;-64
2022/03/22 04:46:17;;;;;;;12.80;7.87;;;4.20;55.10;;;;;;5056948;28;20191;-64
2022/03/22 04:48:48;;;;;;;13.57;7.90;;;4.10;55.40;;;;;;5074857;28;20192;-63
2022/03/22 04:56:45;;;;;;;17.90;8.80;;;4.20;55.80;;;;;;5074051;28;20163;-64
2022/03/22 04:59:24;;;;;;;13.97;7.17;;;4.20;55.80;;;;;;5057475;28;20611;-63
2022/03/22 05:01:53;;;;;;;15.27;9.00;;;4.10;55.80;;;;;;5090953;28;20537;-63
2022/03/22 05:04:19;;;;;;;13.80;7.40;;;4.20;55.80;;;;;;5074697;28;20200;-64
2022/03/22 05:06:45;;;;;;;15.30;8.43;;;4.10;55.80;;;;;;5075274;28;20173;-64
2022/03/22 05:09:12;;;;;;;14.27;8.27;;;4.20;56.10;;;;;;5076195;28;20529;-64
2022/03/22 05:11:38;;;;;;;15.17;8.00;;;4.10;56.10;;;;;;5076520;28;20174;-64
2022/03/22 05:14:04;;;;;;;14.23;8.53;;;4.20;56.20;;;;;;5075909;28;20169;-64
2022/03/22 05:16:33;;;;;;;17.07;8.03;;;4.20;56.20;;;;;;5074564;28;20647;-64
2022/03/22 05:18:59;;;;;;;13.90;8.73;;;4.10;56.30;;;;;;5077245;28;20258;-64
2022/03/22 05:21:26;;;;;;;13.60;8.47;;;4.20;56.60;;;;;;5076685;28;20165;-64
2022/03/22 05:23:52;;;;;;;15.60;9.83;;;4.10;56.60;;;;;;5076993;28;20162;-64
2022/03/22 05:26:18;;;;;;;19.70;8.60;;;4.10;56.90;;;;;;5077286;28;20173;-63
2022/03/22 05:28:44;;;;;;;21.67;11.53;;;4.00;57.00;;;;;;5075408;28;20168;-64
2022/03/22 05:31:14;;;;;;;13.70;8.33;;;4.10;57.30;;;;;;5075935;28;20186;-64
2022/03/22 05:33:41;;;;;;;12.83;7.97;;;4.10;57.60;;;;;;5074843;28;20167;-64
2022/03/22 05:36:07;;;;;;;16.57;9.53;;;4.00;58.40;;;;;;5074445;28;20299;-63
2022/03/22 05:38:33;;;;;;;13.07;8.30;;;4.00;58.00;;;;;;5091043;28;20192;-63
2022/03/22 05:41:02;;;;;;;12.47;7.87;;;3.90;58.50;;;;;;5057236;28;20507;-64
2022/03/22 05:43:28;;;;;;;11.30;7.93;;;3.90;58.50;;;;;;5076872;28;20226;-65
2022/03/22 05:45:54;;;;;;;13.47;8.30;;;4.00;58.60;;;;;;5074085;28;20282;-64
2022/03/22 05:48:20;;;;;;;16.33;8.77;;;4.00;58.70;;;;;;5073698;28;20202;-64
2022/03/22 05:50:47;;;;;;;13.57;8.30;;;4.10;58.80;;;;;;5073468;28;20174;-64
2022/03/22 05:53:13;;;;;;;13.50;8.27;;;4.10;58.70;;;;;;5073246;28;20573;-64
2022/03/22 05:55:40;;;;;;;16.10;9.27;;;4.20;58.80;;;;;;5073224;28;20193;-64
2022/03/22 05:58:06;;;;;;;13.33;9.37;;;4.30;58.90;;;;;;5073221;28;20172;-64
2022/03/22 06:00:32;;;;;;;14.67;7.90;;;4.40;58.90;;;;;;5073845;28;20190;-64
2022/03/22 06:02:58;;;;;;;15.83;8.83;;;4.40;58.30;;;;;;5073282;28;20594;-64
2022/03/22 06:05:24;;;;;;;13.97;8.57;;;4.50;58.30;;;;;;5073863;28;20192;-63
2022/03/22 06:07:50;;;;;;;15.43;8.73;;;4.50;57.60;;;;;;5072914;28;20174;-63
2022/03/22 06:10:16;;;;;;;12.33;7.17;;;4.60;57.70;;;;;;5054850;28;20169;-63
2022/03/22 06:12:45;;;;;;;13.67;7.67;;;4.60;57.90;;;;;;5072864;28;20250;-64
2022/03/22 06:15:24;;;;;;;17.57;8.90;;;4.60;58.10;;;;;;5072875;28;20519;-62
2022/03/22 06:17:56;;;;;;;13.63;7.50;;;4.70;57.80;;;;;;5073399;28;20163;-63
2022/03/22 06:20:33;;;;;;;16.57;8.77;;;4.80;57.50;;;;;;5073095;28;20189;-64
2022/03/22 06:23:00;;;;;;;17.37;8.83;;;5.00;57.30;;;;;;5072855;28;20242;-66
2022/03/22 06:25:26;;;;;;;12.23;6.80;;;5.00;56.90;;;;;;5072613;28;20226;-63
2022/03/22 06:27:53;;;;;;;14.67;8.17;;;5.00;56.80;;;;;;5072896;28;20168;-64
2022/03/22 06:30:19;;;;;;;11.57;6.90;;;5.10;56.90;;;;;;5073225;28;20160;-64
2022/03/22 06:32:49;;;;;;;23.17;9.53;;;5.20;56.50;;;;;;5072653;28;20166;-64
2022/03/22 06:35:17;;;;;;;23.30;9.27;;;5.30;56.30;;;;;;5073029;28;20575;-64
2022/03/22 06:37:43;;;;;;;22.23;8.90;;;5.40;56.40;;;;;;5073307;28;20278;-64
2022/03/22 06:40:10;;;;;;;15.40;9.43;;;5.50;56.10;;;;;;5073337;28;20176;-65
2022/03/22 06:42:36;;;;;;;13.70;6.73;;;5.60;56.10;;;;;;5073343;28;20167;-64
2022/03/22 06:45:04;;;;;;;10.13;6.43;;;5.70;55.50;;;;;;5073849;28;20191;-64
2022/03/22 06:47:33;;;;;;;10.30;6.37;;;5.70;55.20;;;;;;5073082;28;20166;-64
2022/03/22 06:49:59;;;;;;;12.53;7.73;;;5.80;55.00;;;;;;5072774;28;20225;-64
2022/03/22 06:52:25;;;;;;;15.73;7.83;;;6.00;54.40;;;;;;5072893;28;20590;-63
2022/03/22 06:54:51;;;;;;;14.30;7.23;;;6.10;54.50;;;;;;5072751;28;20209;-64
2022/03/22 06:57:17;;;;;;;10.73;6.43;;;6.20;53.70;;;;;;5074983;28;20158;-63
2022/03/22 06:59:42;;;;;;;11.77;6.70;;;6.20;53.60;;;;;;5076743;28;20505;-64
2022/03/22 07:02:08;;;;;;;18.03;8.00;;;6.30;53.60;;;;;;5076335;28;20177;-63
2022/03/22 07:04:35;;;;;;;10.87;6.73;;;6.40;53.20;;;;;;5076027;28;20191;-64
2022/03/22 07:07:01;;;;;;;11.70;6.77;;;6.60;53.20;;;;;;5076318;28;20194;-63
2022/03/22 07:09:27;;;;;;;13.20;6.93;;;6.60;52.80;;;;;;5076535;28;20192;-65
2022/03/22 07:11:55;;;;;;;10.77;5.37;;;6.70;53.10;;;;;;5075677;28;20170;-64
2022/03/22 07:14:25;;;;;;;10.03;5.60;;;7.00;51.60;;;;;;5076464;28;20597;-64
2022/03/22 07:16:51;;;;;;;8.80;5.93;;;7.30;49.60;;;;;;5058277;28;20264;-64
2022/03/22 07:19:18;;;;;;;9.47;5.67;;;7.70;47.80;;;;;;5076458;28;20674;-64
2022/03/22 07:21:45;;;;;;;14.13;5.53;;;7.90;46.50;;;;;;5076089;28;20543;-64
2022/03/22 07:24:13;;;;;;;10.83;5.60;;;8.00;45.70;;;;;;5076057;28;20169;-64
2022/03/22 07:26:40;;;;;;;10.73;6.03;;;8.20;44.90;;;;;;5075891;28;20588;-63
2022/03/22 07:29:07;;;;;;;11.80;6.00;;;8.20;44.60;;;;;;5076066;28;20161;-65
2022/03/22 07:31:37;;;;;;;10.43;6.33;;;8.30;44.30;;;;;;5075767;28;20656;-64
2022/03/22 07:34:08;;;;;;;9.87;6.47;;;8.40;44.00;;;;;;5076283;28;20149;-65
2022/03/22 07:36:36;;;;;;;11.23;5.67;;;8.50;43.40;;;;;;5075791;28;20182;-64
2022/03/22 07:39:02;;;;;;;10.27;6.13;;;8.70;43.20;;;;;;5057399;28;20278;-63
2022/03/22 07:41:28;;;;;;;11.80;6.73;;;8.80;42.70;;;;;;5075291;28;20470;-63
2022/03/22 07:43:54;;;;;;;16.10;6.97;;;8.90;42.30;;;;;;5044567;28;20313;-65
2022/03/22 07:46:23;;;;;;;9.43;6.33;;;9.00;42.00;;;;;;5055217;28;20293;-64
2022/03/22 07:48:50;;;;;;;9.70;6.13;;;9.00;41.50;;;;;;5055520;28;20292;-63
2022/03/22 07:54:01;;;;;;;9.80;6.60;;;9.10;40.90;;;;;;5055677;28;20174;-64
2022/03/22 07:56:26;;;;;;;9.80;6.87;;;9.20;40.60;;;;;;5055591;28;20170;-63
2022/03/22 07:58:52;;;;;;;11.73;6.57;;;9.40;40.30;;;;;;5055838;28;20472;-63
2022/03/22 08:01:18;;;;;;;13.20;5.80;;;9.50;40.00;;;;;;5055424;28;20182;-64
2022/03/22 08:03:43;;;;;;;12.03;7.30;;;9.50;40.00;;;;;;5055832;28;20177;-64
2022/03/22 08:06:09;;;;;;;11.33;6.70;;;9.60;39.80;;;;;;5055272;28;20233;-64
2022/03/22 08:08:37;;;;;;;10.97;6.70;;;9.70;39.60;;;;;;5056664;28;20168;-63
2022/03/22 08:11:05;;;;;;;10.23;6.10;;;9.70;39.60;;;;;;5055242;28;20595;-63
2022/03/22 08:13:32;;;;;;;11.63;6.97;;;9.80;39.30;;;;;;5056546;28;20176;-63
2022/03/22 08:15:57;;;;;;;10.27;6.57;;;9.90;39.20;;;;;;5055963;28;20165;-66
2022/03/22 08:18:23;;;;;;;9.83;6.70;;;10.10;38.50;;;;;;5055263;28;20315;-65
2022/03/22 08:20:49;;;;;;;13.83;6.53;;;10.10;38.20;;;;;;5055262;28;20171;-65
2022/03/22 08:23:15;;;;;;;9.37;6.30;;;10.20;38.10;;;;;;5056012;28;20580;-65
2022/03/22 08:25:48;;;;;;;13.83;6.77;;;10.30;38.10;;;;;;5061763;28;20203;-64
2022/03/22 08:28:14;;;;;;;8.30;6.50;;;10.50;37.90;;;;;;5066367;28;20588;-65
2022/03/22 08:30:40;;;;;;;11.33;6.70;;;10.50;37.30;;;;;;5068751;28;20169;-64
2022/03/22 08:33:09;;;;;;;10.67;7.03;;;10.70;37.20;;;;;;5064398;28;20513;-64
2022/03/22 08:35:36;;;;;;;12.73;6.80;;;10.80;36.90;;;;;;5064643;28;20274;-65
2022/03/22 08:38:02;;;;;;;9.40;6.10;;;10.80;36.70;;;;;;5063215;28;20172;-64
2022/03/22 08:40:28;;;;;;;10.20;6.53;;;11.10;36.60;;;;;;5060906;28;20183;-67
2022/03/22 08:42:57;;;;;;;12.67;7.20;;;11.10;36.30;;;;;;5067592;28;20222;-64
2022/03/22 08:45:25;;;;;;;9.73;6.30;;;11.00;36.00;;;;;;5083910;28;20200;-65
2022/03/22 08:47:52;;;;;;;10.53;6.40;;;11.20;36.00;;;;;;5083929;28;20163;-64
2022/03/22 08:50:20;;;;;;;13.17;6.63;;;11.40;35.90;;;;;;5081937;28;20579;-63
2022/03/22 08:52:47;;;;;;;9.37;6.63;;;11.60;35.70;;;;;;5075657;28;20160;-64
2022/03/22 08:55:15;;;;;;;10.17;6.47;;;11.60;35.30;;;;;;5075012;28;20178;-65
2022/03/22 08:57:42;;;;;;;9.77;5.83;;;11.90;35.20;;;;;;5074581;28;20165;-64
2022/03/22 09:00:10;;;;;;;11.43;6.43;;;11.90;35.00;;;;;;5057084;28;20268;-64
2022/03/22 09:02:41;;;;;;;10.57;6.63;;;12.10;34.80;;;;;;5074192;28;20182;-64
2022/03/22 09:07:56;;;;;;;11.23;5.57;;;12.50;33.00;;;;;;5074473;28;20205;-64
2022/03/22 09:10:22;;;;;;;8.53;6.13;;;12.60;32.50;;;;;;5074296;28;20155;-63
2022/03/22 09:12:48;;;;;;;9.10;5.87;;;12.50;32.20;;;;;;5056892;28;20186;-64
2022/03/22 09:15:15;;;;;;;9.63;6.30;;;12.40;32.00;;;;;;5074368;28;20548;-66
2022/03/22 09:17:41;;;;;;;11.90;6.30;;;12.50;31.60;;;;;;5074250;28;20584;-64
2022/03/22 09:20:07;;;;;;;10.40;6.13;;;12.60;31.40;;;;;;5074071;28;20154;-65
2022/03/22 09:22:34;;;;;;;7.07;5.80;;;12.80;30.80;;;;;;5074557;28;20167;-65
2022/03/22 09:25:00;;;;;;;12.23;6.20;;;12.80;30.10;;;;;;5074215;28;20227;-64
2022/03/22 09:27:26;;;;;;;8.97;6.40;;;12.90;30.00;;;;;;5074662;28;20236;-65
2022/03/22 09:29:52;;;;;;;20.57;6.70;;;13.10;29.90;;;;;;5074264;28;20164;-64
2022/03/22 09:32:17;;;;;;;12.27;6.23;;;13.10;29.70;;;;;;5076110;28;20172;-64
2022/03/22 09:34:43;;;;;;;9.70;6.80;;;13.10;29.90;;;;;;5077150;28;20186;-64
2022/03/22 09:37:09;;;;;;;12.17;7.20;;;13.30;29.70;;;;;;5074055;28;20602;-63
2022/03/22 09:39:35;;;;;;;9.30;6.13;;;13.40;29.50;;;;;;5074252;28;20179;-65
2022/03/22 09:42:03;;;;;;;10.17;6.03;;;13.40;29.80;;;;;;5073985;28;20171;-64
2022/03/22 09:44:29;;;;;;;11.47;6.10;;;13.30;29.10;;;;;;5074045;28;20231;-65
2022/03/22 09:46:56;;;;;;;7.33;5.90;;;13.30;29.00;;;;;;5073656;28;20164;-62
2022/03/22 09:49:23;;;;;;;7.70;6.27;;;13.50;29.10;;;;;;5073646;28;20155;-65
2022/03/22 09:51:49;;;;;;;10.17;6.07;;;13.50;28.90;;;;;;5074338;28;20264;-64
2022/03/22 09:54:23;;;;;;;9.30;6.37;;;13.70;29.00;;;;;;5073970;28;20171;-63
2022/03/22 09:56:50;;;;;;;11.80;6.83;;;13.80;28.80;;;;;;5076857;28;20212;-64
2022/03/22 09:59:20;;;;;;;10.33;6.80;;;14.00;28.90;;;;;;5077603;28;20163;-64
2022/03/22 10:01:46;;;;;;;10.47;6.30;;;14.00;28.70;;;;;;5074219;28;20254;-63
2022/03/22 10:04:14;;;;;;;9.57;5.93;;;14.00;28.50;;;;;;5055106;28;20174;-65
2022/03/22 10:06:57;;;;;;;8.43;6.27;;;14.10;28.20;;;;;;5056443;28;20179;-65
2022/03/22 10:09:28;;;;;;;10.17;7.00;;;14.00;28.10;;;;;;5075537;28;20159;-68
2022/03/22 10:11:54;;;;;;;7.63;5.53;;;14.10;28.10;;;;;;5078082;28;20171;-65
2022/03/22 10:14:19;;;;;;;7.27;5.83;;;14.40;27.90;;;;;;5076859;28;20160;-65
2022/03/22 10:16:51;;;;;;;9.50;6.13;;;14.60;27.90;;;;;;5075464;28;20195;-64
2022/03/22 10:19:23;;;;;;;9.40;5.90;;;14.50;27.60;;;;;;5064110;28;20291;-64
2022/03/22 10:21:49;;;;;;;8.53;5.90;;;14.50;27.40;;;;;;5109717;28;20167;-64
2022/03/22 10:24:15;;;;;;;9.43;6.07;;;14.70;27.20;;;;;;5094226;28;20216;-64
2022/03/22 10:26:44;;;;;;;9.20;6.30;;;14.50;27.10;;;;;;5093942;28;20166;-64
2022/03/22 10:29:12;;;;;;;10.33;6.63;;;14.60;27.10;;;;;;5093443;28;20216;-63
2022/03/22 10:31:39;;;;;;;11.70;5.97;;;14.50;27.00;;;;;;5095336;28;20151;-63
2022/03/22 10:34:07;;;;;;;8.57;5.60;;;14.30;26.60;;;;;;5097622;28;20159;-64
2022/03/22 10:36:35;;;;;;;10.80;6.03;;;14.50;26.90;;;;;;5097095;28;20183;-64
2022/03/22 10:39:06;;;;;;;9.30;6.00;;;14.60;26.60;;;;;;5079678;28;20252;-64
2022/03/22 10:41:33;;;;;;;17.47;6.30;;;14.60;26.30;;;;;;5097282;28;20233;-65
2022/03/22 10:44:09;;;;;;;9.43;6.23;;;14.80;26.30;;;;;;5097610;28;20218;-64
2022/03/22 10:46:38;;;;;;;11.87;6.47;;;14.80;26.00;;;;;;5097790;28;20261;-64
2022/03/22 10:49:06;;;;;;;16.43;7.30;;;14.80;25.90;;;;;;5096863;28;20190;-63
2022/03/22 10:51:39;;;;;;;11.53;6.10;;;15.00;26.30;;;;;;5097516;28;20275;-63
2022/03/22 10:54:05;;;;;;;9.93;5.53;;;15.00;26.00;;;;;;5097723;28;20181;-64
2022/03/22 10:56:33;;;;;;;9.37;6.20;;;15.00;26.10;;;;;;5100332;28;20163;-63
2022/03/22 10:58:59;;;;;;;9.50;6.23;;;15.10;26.00;;;;;;5100898;28;20159;-64
2022/03/22 11:01:25;;;;;;;14.60;6.03;;;15.20;25.80;;;;;;5096830;28;20175;-64
2022/03/22 11:03:56;;;;;;;9.73;5.43;;;15.20;25.60;;;;;;5096573;28;20146;-64
2022/03/22 11:06:25;;;;;;;15.93;7.07;;;15.10;26.20;;;;;;5096423;28;20211;-63
2022/03/22 11:08:51;;;;;;;9.60;6.07;;;15.10;25.70;;;;;;5096804;28;20194;-64
2022/03/22 11:11:17;;;;;;;10.23;6.60;;;15.40;25.90;;;;;;5095938;28;20170;-64
2022/03/22 11:13:44;;;;;;;20.43;6.03;;;15.40;25.60;;;;;;5096435;28;20245;-63
2022/03/22 11:16:10;;;;;;;8.23;5.50;;;15.40;24.90;;;;;;5096449;28;20581;-64
2022/03/22 11:18:37;;;;;;;9.67;5.10;;;15.40;24.70;;;;;;5096419;28;20162;-64
2022/03/22 11:21:04;;;;;;;10.13;5.90;;;15.50;24.70;;;;;;5096521;28;20190;-64
2022/03/22 11:23:31;;;;;;;9.13;5.40;;;15.40;24.50;;;;;;5096410;28;20493;-63
2022/03/22 11:26:08;;;;;;;9.40;5.73;;;15.20;24.80;;;;;;5095922;28;20682;-65
2022/03/22 11:28:35;;;;;;;9.63;5.80;;;15.40;24.90;;;;;;5096320;28;20174;-65
2022/03/22 11:31:01;;;;;;;11.03;5.60;;;15.60;25.00;;;;;;5096377;28;20175;-64
2022/03/22 11:36:21;;;;;;;8.83;5.77;;;15.70;25.10;;;;;;5095854;28;20227;-65
2022/03/22 11:38:50;;;;;;;9.60;5.73;;;15.90;25.10;;;;;;5096162;28;20167;-65
2022/03/22 11:44:17;;;;;;;8.90;6.23;;;15.80;24.70;;;;;;5095471;28;20245;-66
2022/03/22 11:46:43;;;;;;;7.67;5.47;;;15.90;24.80;;;;;;5095810;28;20163;-66
2022/03/22 11:49:21;;;;;;;12.50;6.33;;;15.90;25.00;;;;;;5095372;28;20159;-66
2022/03/22 11:51:57;;;;;;;9.20;6.20;;;15.90;25.20;;;;;;5095728;28;20193;-65
2022/03/22 11:54:28;;;;;;;8.87;6.60;;;15.80;25.10;;;;;;5095471;28;20245;-66
2022/03/22 11:57:02;;;;;;;8.07;6.15;;;15.90;25.20;;;;;;5095348;28;20174;-65
2022/03/22 11:59:27;;;;;;;8.97;6.20;;;16.00;25.30;;;;;;5095228;28;20618;-65
2022/03/22 12:02:04;;;;;;;10.30;7.03;;;16.00;25.30;;;;;;5095276;28;20375;-64
2022/03/22 12:04:34;;;;;;;9.53;6.10;;;16.00;25.30;;;;;;5096305;28;20195;-64
2022/03/22 12:07:00;;;;;;;9.13;6.13;;;16.00;25.30;;;;;;5095504;28;20198;-63
2022/03/22 12:09:26;;;;;;;9.83;6.20;;;16.00;25.20;;;;;;5095518;28;20236;-63
2022/03/22 12:11:54;;;;;;;13.13;6.27;;;15.70;25.10;;;;;;5095522;28;20214;-65
2022/03/22 12:14:34;;;;;;;10.20;6.30;;;16.10;25.50;;;;;;5095852;28;20155;-64
2022/03/22 12:17:00;;;;;;;9.57;6.57;;;16.40;25.60;;;;;;5095454;28;20284;-64
2022/03/22 12:19:32;;;;;;;7.60;5.80;;;16.40;25.50;;;;;;5110585;28;20182;-64
2022/03/22 12:22:00;;;;;;;16.00;6.60;;;16.40;25.50;;;;;;5097160;28;20180;-64
2022/03/22 12:24:30;;;;;;;8.48;6.30;;;16.20;25.40;;;;;;5078712;28;20222;-64
2022/03/22 12:26:57;;;;;;;10.27;6.43;;;16.40;25.50;;;;;;5095379;28;20167;-64
2022/03/22 12:29:25;;;;;;;9.30;6.63;;;16.50;25.60;;;;;;5095074;28;20250;-65
2022/03/22 12:31:53;;;;;;;10.98;6.72;;;16.30;25.40;;;;;;5094842;28;20162;-64
2022/03/22 12:34:19;;;;;;;10.97;6.27;;;16.20;25.40;;;;;;5094961;28;20543;-64
2022/03/22 12:36:45;;;;;;;9.73;6.25;;;16.40;25.50;;;;;;5095208;28;20178;-64
2022/03/22 12:39:12;;;;;;;9.10;6.63;;;16.50;25.70;;;;;;5095155;28;20262;-64
2022/03/22 12:41:38;;;;;;;9.98;6.65;;;16.60;25.60;;;;;;5084221;28;20234;-64
2022/03/22 12:44:07;;;;;;;9.32;6.35;;;16.70;25.70;;;;;;5074528;28;20227;-63
2022/03/22 12:46:33;;;;;;;9.07;5.87;;;16.70;25.70;;;;;;5074330;28;20677;-64
2022/03/22 12:48:58;;;;;;;7.83;6.13;;;16.60;25.40;;;;;;5075347;28;20242;-65
2022/03/22 12:51:25;;;;;;;7.25;5.35;;;16.80;25.40;;;;;;5073932;28;20603;-65
2022/03/22 12:53:52;;;;;;;9.98;6.18;;;16.90;25.40;;;;;;5074261;28;20254;-65
2022/03/22 12:56:20;;;;;;;8.13;5.95;;;17.10;25.50;;;;;;5074216;28;20274;-63
2022/03/22 12:58:46;;;;;;;8.15;5.78;;;17.00;25.60;;;;;;5073879;28;20176;-64
2022/03/22 13:01:12;;;;;;;8.40;6.13;;;17.10;25.50;;;;;;5074741;28;20171;-64
2022/03/22 13:03:38;;;;;;;9.00;6.30;;;17.10;25.50;;;;;;5071235;28;20179;-64
2022/03/22 13:06:07;;;;;;;8.40;6.03;;;17.20;25.80;;;;;;5073906;28;20568;-70
2022/03/22 13:11:29;;;;;;;10.55;6.00;;;17.20;25.20;;;;;;5073882;28;20174;-63
2022/03/22 13:16:57;;;;;;;8.43;5.88;;;17.40;25.10;;;;;;5073851;28;20289;-64
2022/03/22 13:19:30;;;;;;;11.82;6.22;;;17.30;24.60;;;;;;5073534;28;20163;-63
2022/03/22 13:21:56;;;;;;;10.07;7.70;;;17.40;24.90;;;;;;5073692;28;20305;-64
2022/03/22 13:24:23;;;;;;;7.57;5.85;;;17.60;24.90;;;;;;5073438;28;20246;-65